Weather at Camarillo International Airport

Public forecast

Using degrees Fahrenheit for public forecast. Weather courtesy of forecast.io.

Current aviation weather report (METAR) for Camarillo International Airport

Retrieved 2021/10/22 02:20 UTC (22 minutes ago):

KCMA 220220Z 21003KT 10SM OVC006 17/13 A3006 RMK AO2 T01720133

Aviation forecast (TAF) for Camarillo International Airport

Retrieved 2021-10-22 00:46 UTC (2 hours ago):

TAF KCMA 212346Z 2200/2224 25010KT P6SM SCT250 FM220200 VRB03KT P6SM FEW005 SCT250 FM220500 VRB03KT 5SM BR OVC005 FM220900 VRB03KT 2SM BR VCFG OVC003 FM221600 VRB03KT 5SM BR BKN006 FM221800 24005KT P6SM BKN015 FM222200 24009KT P6SM BKN050